Time;durP1;ratioP1;P1;durP2;ratioP2;P2;SDS_P1;SDS_P2;PMS_P1;PMS_P2;Temp;Humidity;BMP_temperature;BMP_pressure;BME280_temperature;BME280_humidity;BME280_pressure;Samples;Min_cycle;Max_cycle;Signal;HPM_P1;HPM_P2
2021/12/15 00:01:38;;;;;;;5.68;2.97;;;;;;;;;;6216837;22;20108;-46
2021/12/15 00:04:04;;;;;;;4.50;3.08;;;;;;;;;;6215236;23;20004;-45
2021/12/15 00:06:29;;;;;;;3.67;2.72;;;;;;;;;;6206175;23;20031;-44
2021/12/15 00:08:56;;;;;;;5.38;3.40;;;;;;;;;;6219106;22;20013;-45
2021/12/15 00:11:21;;;;;;;5.07;3.42;;;;;;;;;;6219873;22;20013;-44
2021/12/15 00:13:47;;;;;;;4.05;3.00;;;;;;;;;;6224150;22;20538;-45
2021/12/15 00:16:15;;;;;;;4.22;3.38;;;;;;;;;;6224812;22;20015;-46
2021/12/15 00:18:41;;;;;;;3.78;2.75;;;;;;;;;;6218594;22;20405;-46
2021/12/15 00:21:08;;;;;;;5.63;3.45;;;;;;;;;;6219830;22;20044;-43
2021/12/15 00:23:33;;;;;;;5.88;3.80;;;;;;;;;;6221954;22;20016;-44
2021/12/15 00:25:58;;;;;;;3.65;3.13;;;;;;;;;;6224696;22;20015;-46
2021/12/15 00:28:24;;;;;;;3.42;3.13;;;;;;;;;;6222485;22;20016;-44
2021/12/15 00:30:49;;;;;;;3.78;3.42;;;;;;;;;;6218091;22;20001;-44
2021/12/15 00:33:14;;;;;;;5.32;3.70;;;;;;;;;;6219186;22;20108;-43
2021/12/15 00:35:40;;;;;;;3.95;3.42;;;;;;;;;;6218501;22;20013;-44
2021/12/15 00:38:06;;;;;;;4.90;3.75;;;;;;;;;;6219713;22;20036;-44
2021/12/15 00:40:32;;;;;;;5.30;3.40;;;;;;;;;;6221766;22;20080;-43
2021/12/15 00:42:58;;;;;;;4.05;3.30;;;;;;;;;;6224220;22;20043;-44
2021/12/15 00:45:23;;;;;;;5.97;2.83;;;;;;;;;;6222012;22;20362;-43
2021/12/15 00:47:49;;;;;;;3.05;2.75;;;;;;;;;;6218674;22;20031;-44
2021/12/15 00:50:16;;;;;;;3.70;2.63;;;;;;;;;;6218387;22;20349;-42
2021/12/15 00:52:42;;;;;;;5.75;3.03;;;;;;;;;;6218582;22;20515;-44
2021/12/15 00:55:09;;;;;;;7.07;3.03;;;;;;;;;;6219378;22;20112;-44
2021/12/15 00:57:34;;;;;;;5.03;3.05;;;;;;;;;;6222387;22;20016;-45
2021/12/15 01:00:00;;;;;;;4.53;2.55;;;;;;;;;;6212986;23;20013;-44
2021/12/15 01:02:25;;;;;;;3.22;2.65;;;;;;;;;;6205450;23;20013;-44
2021/12/15 01:04:50;;;;;;;4.28;2.75;;;;;;;;;;6219088;22;20048;-45
2021/12/15 01:07:16;;;;;;;5.35;2.90;;;;;;;;;;6218627;22;20469;-43
2021/12/15 01:09:52;;;;;;;3.05;2.75;;;;;;;;;;6223667;22;20099;-44
2021/12/15 01:20:26;;;;;;;3.58;2.90;;;;;;;;;;6221753;22;20408;-45
2021/12/15 01:22:53;;;;;;;2.75;2.05;;;;;;;;;;6218829;22;20075;-44
2021/12/15 01:25:24;;;;;;;6.43;2.63;;;;;;;;;;6219335;22;20009;-44
2021/12/15 01:27:50;;;;;;;4.00;2.10;;;;;;;;;;6223521;22;20016;-44
2021/12/15 01:30:16;;;;;;;5.22;2.53;;;;;;;;;;6222986;22;20013;-42
2021/12/15 01:32:42;;;;;;;7.28;2.42;;;;;;;;;;6218502;22;20013;-44
2021/12/15 01:35:07;;;;;;;4.32;2.13;;;;;;;;;;6218430;22;20707;-44
2021/12/15 01:37:33;;;;;;;2.80;1.80;;;;;;;;;;6222016;22;20009;-43
2021/12/15 01:39:59;;;;;;;1.90;1.70;;;;;;;;;;6223359;22;20095;-44
2021/12/15 01:42:27;;;;;;;1.98;1.88;;;;;;;;;;6221124;22;20087;-44
2021/12/15 01:47:36;;;;;;;5.60;1.95;;;;;;;;;;6222705;22;20069;-44
2021/12/15 01:50:02;;;;;;;3.70;1.88;;;;;;;;;;6223043;22;20497;-44
2021/12/15 01:52:29;;;;;;;4.90;1.70;;;;;;;;;;6220973;22;20016;-43
2021/12/15 01:55:10;;;;;;;4.32;1.85;;;;;;;;;;6218079;22;20016;-44
2021/12/15 01:57:36;;;;;;;1.98;1.77;;;;;;;;;;6222316;22;20059;-44
2021/12/15 02:00:06;;;;;;;1.95;1.75;;;;;;;;;;6223562;22;20012;-44
2021/12/15 02:02:31;;;;;;;2.60;1.98;;;;;;;;;;6219515;22;20016;-44
2021/12/15 02:04:57;;;;;;;2.33;1.55;;;;;;;;;;6218744;22;20339;-44
2021/12/15 02:07:23;;;;;;;2.33;1.75;;;;;;;;;;6219514;22;20025;-44
2021/12/15 02:12:21;;;;;;;3.33;1.60;;;;;;;;;;6221433;22;20016;-44
2021/12/15 02:14:46;;;;;;;3.40;2.50;;;;;;;;;;6217897;22;20104;-44
2021/12/15 02:17:12;;;;;;;2.70;2.13;;;;;;;;;;6218985;22;20036;-44
2021/12/15 02:19:37;;;;;;;1.83;1.70;;;;;;;;;;6222460;22;20032;-46
2021/12/15 02:22:03;;;;;;;5.28;2.15;;;;;;;;;;6223720;22;20313;-46
2021/12/15 02:24:28;;;;;;;2.42;2.00;;;;;;;;;;6220022;22;20404;-44
2021/12/15 02:26:58;;;;;;;2.42;1.73;;;;;;;;;;6218252;22;20050;-46
2021/12/15 02:29:24;;;;;;;4.20;2.00;;;;;;;;;;6219296;22;20062;-45
2021/12/15 02:31:57;;;;;;;3.90;1.83;;;;;;;;;;6223331;22;20012;-44
2021/12/15 02:39:55;;;;;;;4.28;1.63;;;;;;;;;;6128792;23;20013;-45
2021/12/15 02:42:22;;;;;;;3.00;1.67;;;;;;;;;;6217469;22;20004;-44
2021/12/15 02:44:47;;;;;;;1.65;1.55;;;;;;;;;;6234520;22;20023;-44
2021/12/15 02:47:14;;;;;;;1.73;1.63;;;;;;;;;;6234634;22;20024;-45
2021/12/15 02:49:39;;;;;;;1.67;1.55;;;;;;;;;;6235252;22;20447;-44
2021/12/15 02:52:05;;;;;;;3.78;1.60;;;;;;;;;;6234612;22;20066;-44
2021/12/15 02:54:30;;;;;;;1.63;1.38;;;;;;;;;;6235608;22;20016;-45
2021/12/15 02:57:03;;;;;;;3.70;1.85;;;;;;;;;;6235633;22;20020;-44
2021/12/15 02:59:40;;;;;;;5.18;2.00;;;;;;;;;;6235026;22;20044;-44
2021/12/15 03:07:13;;;;;;;3.47;2.10;;;;;;;;;;6238137;22;20019;-44
2021/12/15 03:17:43;;;;;;;2.55;1.48;;;;;;;;;;6235042;22;20018;-46
2021/12/15 03:20:10;;;;;;;2.20;1.80;;;;;;;;;;6235564;22;20110;-44
2021/12/15 03:22:35;;;;;;;2.70;1.80;;;;;;;;;;6234235;22;20008;-44
2021/12/15 03:25:01;;;;;;;6.70;2.00;;;;;;;;;;6235146;22;20517;-45
2021/12/15 03:33:16;;;;;;;4.75;1.80;;;;;;;;;;6234655;22;20036;-44
2021/12/15 03:35:59;;;;;;;1.52;1.40;;;;;;;;;;6234971;22;20085;-44
2021/12/15 03:38:24;;;;;;;3.97;1.85;;;;;;;;;;6234934;22;20027;-44
2021/12/15 03:40:49;;;;;;;3.45;1.80;;;;;;;;;;6233210;23;20008;-45
2021/12/15 03:43:15;;;;;;;2.42;1.83;;;;;;;;;;6235179;22;20322;-44
2021/12/15 03:45:52;;;;;;;1.80;1.70;;;;;;;;;;6235455;22;20064;-44
2021/12/15 03:48:20;;;;;;;4.10;1.60;;;;;;;;;;6235094;22;20787;-45
2021/12/15 03:50:45;;;;;;;1.73;1.50;;;;;;;;;;6234697;22;20023;-44
2021/12/15 03:53:11;;;;;;;2.15;1.58;;;;;;;;;;6236574;22;20024;-44
2021/12/15 03:55:37;;;;;;;3.75;1.80;;;;;;;;;;6236246;22;20495;-45
2021/12/15 03:58:07;;;;;;;1.85;1.63;;;;;;;;;;6237402;22;20012;-44
2021/12/15 04:00:32;;;;;;;1.45;1.35;;;;;;;;;;6236654;22;20065;-44
2021/12/15 04:02:58;;;;;;;3.67;1.33;;;;;;;;;;6235971;22;20379;-45
2021/12/15 04:05:24;;;;;;;3.03;1.60;;;;;;;;;;6236984;22;20019;-45
2021/12/15 04:07:50;;;;;;;2.30;1.80;;;;;;;;;;6237300;22;20013;-45
2021/12/15 04:10:17;;;;;;;2.75;1.55;;;;;;;;;;6234811;22;20039;-44
2021/12/15 04:12:43;;;;;;;2.42;1.75;;;;;;;;;;6236385;22;20006;-44
2021/12/15 04:17:47;;;;;;;2.10;1.92;;;;;;;;;;6236468;22;20032;-44
2021/12/15 04:20:15;;;;;;;1.65;1.52;;;;;;;;;;6237352;22;20083;-44
2021/12/15 04:22:41;;;;;;;3.53;2.00;;;;;;;;;;6235859;22;20444;-44
2021/12/15 04:25:08;;;;;;;2.28;1.92;;;;;;;;;;6235602;23;20027;-45
2021/12/15 04:27:33;;;;;;;2.05;1.58;;;;;;;;;;6236207;22;20563;-45
2021/12/15 04:29:59;;;;;;;2.08;1.75;;;;;;;;;;6237160;22;20043;-44
2021/12/15 04:32:27;;;;;;;2.55;1.33;;;;;;;;;;6236039;22;20099;-44
2021/12/15 04:34:52;;;;;;;1.85;1.55;;;;;;;;;;6233617;22;20016;-44
2021/12/15 04:37:18;;;;;;;2.40;1.55;;;;;;;;;;6236534;22;20325;-44
2021/12/15 04:39:43;;;;;;;2.65;1.42;;;;;;;;;;6237168;22;20432;-45
2021/12/15 04:42:09;;;;;;;2.55;1.45;;;;;;;;;;6236476;22;20023;-44
2021/12/15 04:44:34;;;;;;;3.25;1.83;;;;;;;;;;6236557;22;20093;-44
2021/12/15 04:47:04;;;;;;;5.47;1.95;;;;;;;;;;6235884;22;20031;-44
2021/12/15 04:49:31;;;;;;;3.38;1.77;;;;;;;;;;6236448;22;20039;-44
2021/12/15 04:51:56;;;;;;;2.53;1.63;;;;;;;;;;6236523;22;20095;-44
2021/12/15 04:54:22;;;;;;;2.45;1.70;;;;;;;;;;6235825;22;20028;-45
2021/12/15 04:56:47;;;;;;;2.65;1.95;;;;;;;;;;6236913;22;20755;-44
2021/12/15 04:59:13;;;;;;;2.42;2.22;;;;;;;;;;6236818;22;20012;-44
2021/12/15 05:01:39;;;;;;;1.55;1.17;;;;;;;;;;6236011;22;20019;-44
2021/12/15 05:04:04;;;;;;;2.15;1.33;;;;;;;;;;6236057;22;20027;-44
2021/12/15 05:06:30;;;;;;;3.22;1.85;;;;;;;;;;6236226;22;20051;-44
2021/12/15 05:08:55;;;;;;;2.65;1.95;;;;;;;;;;6237159;22;20028;-43
2021/12/15 05:11:21;;;;;;;3.50;1.80;;;;;;;;;;6235727;22;20012;-44
2021/12/15 05:13:46;;;;;;;2.15;1.95;;;;;;;;;;6236639;22;20341;-45
2021/12/15 05:16:11;;;;;;;2.55;2.00;;;;;;;;;;6235777;22;20349;-44
2021/12/15 05:18:36;;;;;;;1.77;1.67;;;;;;;;;;6236441;22;20015;-46
2021/12/15 05:21:02;;;;;;;3.00;1.73;;;;;;;;;;6236081;22;20004;-44
2021/12/15 05:23:30;;;;;;;1.52;1.38;;;;;;;;;;6235852;22;20020;-44
2021/12/15 05:25:57;;;;;;;2.88;1.88;;;;;;;;;;6236135;22;20020;-44
2021/12/15 05:28:22;;;;;;;3.10;1.98;;;;;;;;;;6236132;22;20023;-44
2021/12/15 05:30:47;;;;;;;3.40;1.95;;;;;;;;;;6236214;22;20000;-43
2021/12/15 05:33:13;;;;;;;3.95;2.10;;;;;;;;;;6236838;22;20444;-44
2021/12/15 05:35:38;;;;;;;3.58;2.45;;;;;;;;;;6235384;22;20098;-44
2021/12/15 05:38:04;;;;;;;1.95;1.70;;;;;;;;;;6236698;22;20012;-44
2021/12/15 05:40:29;;;;;;;4.72;3.47;;;;;;;;;;6235484;22;20062;-45
2021/12/15 05:42:58;;;;;;;2.83;2.42;;;;;;;;;;6236050;22;20008;-44
2021/12/15 05:45:24;;;;;;;4.45;2.28;;;;;;;;;;6235458;22;20016;-44
2021/12/15 05:47:50;;;;;;;3.38;2.55;;;;;;;;;;6235942;22;20016;-44
2021/12/15 05:50:15;;;;;;;6.07;2.53;;;;;;;;;;6234579;22;20092;-44
2021/12/15 05:52:41;;;;;;;4.88;3.13;;;;;;;;;;6236275;22;20309;-45
2021/12/15 05:55:07;;;;;;;3.35;2.75;;;;;;;;;;6235460;22;20091;-46
2021/12/15 05:57:33;;;;;;;5.43;2.95;;;;;;;;;;6235852;22;20016;-46
2021/12/15 05:59:58;;;;;;;3.95;2.97;;;;;;;;;;6235394;22;20008;-47
2021/12/15 06:02:23;;;;;;;9.88;3.03;;;;;;;;;;6235455;22;20020;-44
2021/12/15 06:04:49;;;;;;;5.68;4.07;;;;;;;;;;6235276;22;20008;-45
2021/12/15 06:07:14;;;;;;;8.02;3.35;;;;;;;;;;6235913;22;20027;-42
2021/12/15 06:09:39;;;;;;;3.80;2.78;;;;;;;;;;6235442;22;20457;-44
2021/12/15 06:12:05;;;;;;;6.80;3.53;;;;;;;;;;6236637;22;20012;-44
2021/12/15 06:14:31;;;;;;;4.03;3.13;;;;;;;;;;6234751;22;20502;-44
2021/12/15 06:17:07;;;;;;;5.70;3.55;;;;;;;;;;6236315;22;20012;-45
2021/12/15 06:19:33;;;;;;;5.00;3.53;;;;;;;;;;6234635;22;20062;-46
2021/12/15 06:21:58;;;;;;;5.00;3.25;;;;;;;;;;6235593;22;20428;-44
2021/12/15 06:24:24;;;;;;;4.22;3.65;;;;;;;;;;6233270;22;20026;-44
2021/12/15 06:26:50;;;;;;;4.28;3.47;;;;;;;;;;6235942;22;20330;-44
2021/12/15 06:29:15;;;;;;;5.65;4.03;;;;;;;;;;6234928;22;20039;-45
2021/12/15 06:31:41;;;;;;;6.20;3.92;;;;;;;;;;6236004;22;20004;-44
2021/12/15 06:34:06;;;;;;;5.13;3.30;;;;;;;;;;6235251;22;20016;-44
2021/12/15 06:36:33;;;;;;;4.45;3.20;;;;;;;;;;6235690;22;20012;-44
2021/12/15 06:38:58;;;;;;;5.85;3.88;;;;;;;;;;6235169;22;20742;-44
2021/12/15 06:41:24;;;;;;;7.95;3.78;;;;;;;;;;6235650;22;20009;-44
2021/12/15 06:43:54;;;;;;;3.65;2.95;;;;;;;;;;6234943;22;20039;-44
2021/12/15 06:57:30;;;;;;;3.63;3.17;;;;;;;;;;6234910;22;20086;-44
2021/12/15 06:59:56;;;;;;;;;;;;;;;;;;6222918;22;20020;-44
2021/12/15 07:02:21;;;;;;;4.68;3.97;;;;;;;;;;6221184;22;19910;-44
2021/12/15 07:04:46;;;;;;;4.38;3.67;;;;;;;;;;6217133;22;20039;-43
2021/12/15 07:07:11;;;;;;;4.85;3.50;;;;;;;;;;6217666;22;20031;-45
2021/12/15 07:09:37;;;;;;;5.00;3.03;;;;;;;;;;6222209;22;20039;-46
2021/12/15 07:12:03;;;;;;;4.75;3.25;;;;;;;;;;6223178;22;20356;-44
2021/12/15 07:14:28;;;;;;;6.15;3.50;;;;;;;;;;6218350;22;20008;-43
2021/12/15 07:16:56;;;;;;;6.00;3.47;;;;;;;;;;6217954;22;20163;-44
2021/12/15 07:22:32;;;;;;;6.32;3.47;;;;;;;;;;6223576;22;20012;-43
2021/12/15 07:24:38;;;;;;;4.80;3.55;;;;;;;;;;6231112;22;20013;-44
2021/12/15 07:27:04;;;;;;;4.63;3.33;;;;;;;;;;6236425;22;20050;-44
2021/12/15 07:29:30;;;;;;;4.18;3.65;;;;;;;;;;6236897;22;20008;-45
2021/12/15 07:31:56;;;;;;;3.72;3.17;;;;;;;;;;6237307;22;20474;-46
2021/12/15 07:34:21;;;;;;;4.68;3.83;;;;;;;;;;6236744;22;20349;-44
2021/12/15 07:36:46;;;;;;;5.32;4.10;;;;;;;;;;6237039;22;20543;-43
2021/12/15 07:39:12;;;;;;;4.65;4.18;;;;;;;;;;6237763;22;20020;-44
2021/12/15 07:41:48;;;;;;;5.60;3.80;;;;;;;;;;6236201;22;20032;-45
2021/12/15 07:44:14;;;;;;;5.18;4.10;;;;;;;;;;6237676;22;20348;-45
2021/12/15 07:46:39;;;;;;;4.45;3.55;;;;;;;;;;6236312;22;20019;-44
2021/12/15 07:49:04;;;;;;;4.10;3.72;;;;;;;;;;6235199;23;20524;-49
2021/12/15 07:51:30;;;;;;;8.80;3.58;;;;;;;;;;6236802;22;20031;-45
2021/12/15 07:53:55;;;;;;;4.32;3.90;;;;;;;;;;6236904;22;20031;-44
2021/12/15 07:56:20;;;;;;;5.30;4.55;;;;;;;;;;6237186;22;20008;-44
2021/12/15 07:58:45;;;;;;;5.43;3.55;;;;;;;;;;6237428;22;20012;-44
2021/12/15 08:01:11;;;;;;;5.82;3.78;;;;;;;;;;6237303;22;20008;-44
2021/12/15 08:03:37;;;;;;;5.03;3.58;;;;;;;;;;6236411;22;20008;-43
2021/12/15 08:06:03;;;;;;;4.57;3.78;;;;;;;;;;6237122;22;20077;-44
2021/12/15 08:08:28;;;;;;;6.35;3.92;;;;;;;;;;6236506;22;20400;-44
2021/12/15 08:10:56;;;;;;;4.45;4.00;;;;;;;;;;6237255;22;20384;-43
2021/12/15 08:13:22;;;;;;;4.47;4.07;;;;;;;;;;6236725;22;20476;-45
2021/12/15 08:15:47;;;;;;;5.47;4.13;;;;;;;;;;6236827;22;20018;-45
2021/12/15 08:18:12;;;;;;;6.85;4.15;;;;;;;;;;6237338;22;20329;-44
2021/12/15 08:20:38;;;;;;;9.65;4.40;;;;;;;;;;6234673;22;20041;-44
2021/12/15 08:23:05;;;;;;;6.38;4.65;;;;;;;;;;6236756;22;20023;-44
2021/12/15 08:25:31;;;;;;;4.13;3.55;;;;;;;;;;6235650;22;20450;-44
2021/12/15 08:27:57;;;;;;;5.00;4.05;;;;;;;;;;6237092;22;20051;-44
2021/12/15 08:30:24;;;;;;;7.05;4.13;;;;;;;;;;6235641;22;20013;-45
2021/12/15 08:32:51;;;;;;;5.38;4.07;;;;;;;;;;6236986;22;20448;-46
2021/12/15 08:35:18;;;;;;;4.38;3.75;;;;;;;;;;6235429;22;20067;-43
2021/12/15 08:37:43;;;;;;;4.50;4.10;;;;;;;;;;6235218;22;20009;-44
2021/12/15 08:40:09;;;;;;;7.20;4.25;;;;;;;;;;6235215;22;20019;-44
2021/12/15 08:42:34;;;;;;;7.95;4.55;;;;;;;;;;6235787;22;20445;-44
2021/12/15 08:45:00;;;;;;;5.35;4.20;;;;;;;;;;6237087;22;20035;-43
2021/12/15 08:47:25;;;;;;;6.32;4.03;;;;;;;;;;6235389;22;20106;-44
2021/12/15 08:49:50;;;;;;;6.78;3.67;;;;;;;;;;6234930;23;20103;-44
2021/12/15 08:52:16;;;;;;;5.80;5.03;;;;;;;;;;6233101;22;20020;-46
2021/12/15 08:54:41;;;;;;;8.10;4.70;;;;;;;;;;6234445;23;20392;-44
2021/12/15 08:57:07;;;;;;;5.63;3.83;;;;;;;;;;6236651;22;20699;-43
2021/12/15 08:59:33;;;;;;;6.90;4.40;;;;;;;;;;6233496;22;20023;-44
2021/12/15 09:01:58;;;;;;;5.63;4.63;;;;;;;;;;6236566;22;20012;-44
2021/12/15 09:04:23;;;;;;;6.05;4.40;;;;;;;;;;6231325;22;20016;-45
2021/12/15 09:06:49;;;;;;;5.65;4.65;;;;;;;;;;6224241;22;20012;-48
2021/12/15 09:09:15;;;;;;;4.20;3.80;;;;;;;;;;6229904;22;20020;-44
2021/12/15 09:11:41;;;;;;;7.53;4.88;;;;;;;;;;6225995;22;20099;-48
2021/12/15 09:14:07;;;;;;;6.28;4.28;;;;;;;;;;6227751;22;20040;-45
2021/12/15 09:16:33;;;;;;;6.78;4.90;;;;;;;;;;6225476;22;20518;-44
2021/12/15 09:18:59;;;;;;;4.85;4.35;;;;;;;;;;6227363;22;20020;-44
2021/12/15 09:21:26;;;;;;;7.45;4.82;;;;;;;;;;6225511;22;20058;-45
2021/12/15 09:23:52;;;;;;;7.35;4.70;;;;;;;;;;6227503;22;20027;-45
2021/12/15 09:26:17;;;;;;;7.03;4.72;;;;;;;;;;6223902;22;20016;-44
2021/12/15 09:28:43;;;;;;;7.63;5.35;;;;;;;;;;6229595;22;20008;-45
2021/12/15 09:31:09;;;;;;;5.20;4.38;;;;;;;;;;6227214;22;20012;-43
2021/12/15 09:33:35;;;;;;;10.57;5.07;;;;;;;;;;6227239;22;20085;-45
2021/12/15 09:36:01;;;;;;;6.30;5.70;;;;;;;;;;6229412;22;20736;-43
2021/12/15 09:38:26;;;;;;;6.90;4.78;;;;;;;;;;6229012;22;20012;-45
2021/12/15 09:40:54;;;;;;;6.40;4.78;;;;;;;;;;6229867;22;20016;-46
2021/12/15 09:43:20;;;;;;;7.20;4.53;;;;;;;;;;6229383;22;20609;-44
2021/12/15 10:04:32;;;;;;;4.80;4.30;;;;;;;;;;6229648;22;20015;-44
2021/12/15 10:17:49;;;;;;;9.18;5.93;;;;;;;;;;6228454;22;20085;-42
2021/12/15 10:20:20;;;;;;;5.50;4.90;;;;;;;;;;6229058;22;20023;-42
2021/12/15 10:22:48;;;;;;;6.28;5.32;;;;;;;;;;6229258;22;20078;-43
2021/12/15 10:25:15;;;;;;;5.45;4.85;;;;;;;;;;6229005;22;20016;-43
2021/12/15 10:27:47;;;;;;;7.95;5.53;;;;;;;;;;6229476;22;20534;-44
2021/12/15 10:30:16;;;;;;;5.60;4.97;;;;;;;;;;6226791;23;20575;-42
2021/12/15 10:32:42;;;;;;;5.75;5.22;;;;;;;;;;6228656;22;20019;-43
2021/12/15 10:35:10;;;;;;;7.80;4.70;;;;;;;;;;6228937;22;20063;-44
2021/12/15 10:37:35;;;;;;;4.85;4.35;;;;;;;;;;6228948;22;20011;-42
2021/12/15 10:40:08;;;;;;;8.02;5.30;;;;;;;;;;6229361;22;20008;-44
2021/12/15 10:42:33;;;;;;;4.95;4.45;;;;;;;;;;6228953;22;20012;-44
2021/12/15 10:45:03;;;;;;;4.28;3.97;;;;;;;;;;6228549;22;20012;-44
2021/12/15 10:47:29;;;;;;;6.18;5.07;;;;;;;;;;6229212;22;20019;-44
2021/12/15 10:49:54;;;;;;;4.78;4.25;;;;;;;;;;6228413;22;20412;-46
2021/12/15 10:52:19;;;;;;;5.88;5.25;;;;;;;;;;6227881;22;20297;-44
2021/12/15 10:54:49;;;;;;;5.13;4.60;;;;;;;;;;6229411;22;20083;-45
2021/12/15 10:57:14;;;;;;;;;;;;;;;;;;6229034;22;20007;-45
2021/12/15 10:59:44;;;;;;;6.30;4.15;;;;;;;;;;6229178;22;19999;-45
2021/12/15 11:02:12;;;;;;;6.95;4.45;;;;;;;;;;6229304;22;20326;-45
2021/12/15 11:04:45;;;;;;;5.38;4.78;;;;;;;;;;6227504;22;20455;-44
2021/12/15 11:07:14;;;;;;;4.63;4.22;;;;;;;;;;6228835;22;20090;-44
2021/12/15 11:09:58;;;;;;;5.45;4.05;;;;;;;;;;6227135;23;20035;-44
2021/12/15 11:12:33;;;;;;;5.57;4.25;;;;;;;;;;6229528;22;20020;-44
2021/12/15 11:15:02;;;;;;;4.93;4.20;;;;;;;;;;6229693;22;20019;-43
2021/12/15 11:17:28;;;;;;;4.65;4.25;;;;;;;;;;6227659;22;20016;-44
2021/12/15 11:19:54;;;;;;;6.05;4.22;;;;;;;;;;6229243;22;20019;-44
2021/12/15 11:22:38;;;;;;;6.53;4.75;;;;;;;;;;6228928;22;20087;-45
2021/12/15 11:25:17;;;;;;;5.13;4.45;;;;;;;;;;6229773;22;20042;-46
2021/12/15 11:27:45;;;;;;;5.22;4.32;;;;;;;;;;6224218;22;20461;-44
2021/12/15 11:30:13;;;;;;;5.68;4.68;;;;;;;;;;6229236;22;20204;-44
2021/12/15 11:32:43;;;;;;;6.28;4.47;;;;;;;;;;6226653;22;20497;-46
2021/12/15 11:35:11;;;;;;;4.82;4.18;;;;;;;;;;6229691;22;20020;-44
2021/12/15 11:37:43;;;;;;;7.63;5.03;;;;;;;;;;6228034;22;20535;-44
2021/12/15 11:40:09;;;;;;;4.35;3.80;;;;;;;;;;6228915;22;20016;-43
2021/12/15 11:42:38;;;;;;;7.72;4.63;;;;;;;;;;6228203;22;20357;-44
2021/12/15 11:45:05;;;;;;;5.88;4.80;;;;;;;;;;6229124;22;20034;-45
2021/12/15 11:47:33;;;;;;;4.60;4.00;;;;;;;;;;6227846;22;20024;-44
2021/12/15 11:50:05;;;;;;;5.53;3.83;;;;;;;;;;6229029;22;20019;-44
2021/12/15 11:52:37;;;;;;;4.55;4.15;;;;;;;;;;6228583;22;20018;-44
2021/12/15 11:55:03;;;;;;;5.88;4.57;;;;;;;;;;6228051;22;20026;-45
2021/12/15 11:57:30;;;;;;;5.32;3.67;;;;;;;;;;6227612;22;20016;-45
2021/12/15 11:59:57;;;;;;;7.20;4.10;;;;;;;;;;6229273;22;20059;-45
2021/12/15 12:02:22;;;;;;;5.65;5.15;;;;;;;;;;6227023;22;20305;-44
2021/12/15 12:04:52;;;;;;;4.88;4.38;;;;;;;;;;6228350;22;20479;-45
2021/12/15 12:07:27;;;;;;;5.85;4.15;;;;;;;;;;6227586;22;20395;-45
2021/12/15 12:09:57;;;;;;;5.90;4.03;;;;;;;;;;6228594;22;20040;-45
2021/12/15 12:12:27;;;;;;;4.60;4.20;;;;;;;;;;6228356;22;20017;-44
2021/12/15 12:14:52;;;;;;;;;;;;;;;;;;6229841;22;20020;-46
2021/12/15 12:17:29;;;;;;;5.50;4.43;;;;;;;;;;6230431;22;20545;-44
2021/12/15 12:20:00;;;;;;;4.75;3.63;;;;;;;;;;6230777;22;20263;-45
2021/12/15 12:22:27;;;;;;;3.67;3.38;;;;;;;;;;6228946;22;20065;-46
2021/12/15 12:24:54;;;;;;;4.75;4.13;;;;;;;;;;6230901;22;20027;-45
2021/12/15 12:27:21;;;;;;;3.70;3.40;;;;;;;;;;6230148;22;20559;-46
2021/12/15 12:29:46;;;;;;;5.35;3.80;;;;;;;;;;6227053;22;20351;-44
2021/12/15 12:32:12;;;;;;;7.30;3.67;;;;;;;;;;6230633;22;20022;-45
2021/12/15 12:34:38;;;;;;;4.35;3.60;;;;;;;;;;6230370;22;20131;-44
2021/12/15 12:37:04;;;;;;;4.00;3.53;;;;;;;;;;6229678;22;20005;-45
2021/12/15 12:39:30;;;;;;;4.95;3.70;;;;;;;;;;6228772;22;20012;-44
2021/12/15 12:41:57;;;;;;;5.15;4.05;;;;;;;;;;6229409;22;20445;-46
2021/12/15 12:44:23;;;;;;;4.00;3.28;;;;;;;;;;6229160;22;20012;-45
2021/12/15 12:46:56;;;;;;;4.53;3.42;;;;;;;;;;6228742;22;20073;-45
2021/12/15 13:00:56;;;;;;;5.75;3.17;;;;;;;;;;6227589;22;20404;-45
2021/12/15 13:03:28;;;;;;;4.05;3.08;;;;;;;;;;6226661;22;20008;-45
2021/12/15 13:06:04;;;;;;;3.80;3.42;;;;;;;;;;6227383;22;20047;-44
2021/12/15 13:08:29;;;;;;;3.40;3.10;;;;;;;;;;6227233;22;20017;-45
2021/12/15 13:11:06;;;;;;;4.60;3.42;;;;;;;;;;6226241;22;20062;-47
2021/12/15 13:13:34;;;;;;;3.58;3.25;;;;;;;;;;6226662;22;20065;-46
2021/12/15 13:16:03;;;;;;;6.25;3.38;;;;;;;;;;6227110;22;20020;-44
2021/12/15 13:18:40;;;;;;;3.50;2.92;;;;;;;;;;6225869;22;20016;-46
2021/12/15 13:21:07;;;;;;;3.38;2.92;;;;;;;;;;6228213;22;20012;-49
2021/12/15 13:23:48;;;;;;;3.35;3.05;;;;;;;;;;6226665;22;20039;-45
2021/12/15 13:29:22;;;;;;;4.25;3.10;;;;;;;;;;6216190;22;20077;-45
2021/12/15 13:31:51;;;;;;;4.97;3.53;;;;;;;;;;6211400;22;20084;-44
2021/12/15 13:34:32;;;;;;;6.03;2.88;;;;;;;;;;6212699;22;20008;-44
2021/12/15 13:36:59;;;;;;;4.65;2.75;;;;;;;;;;6216640;22;20016;-47
2021/12/15 13:39:24;;;;;;;4.05;3.42;;;;;;;;;;6202837;22;20028;-45
2021/12/15 13:42:08;;;;;;;5.18;3.13;;;;;;;;;;6216825;22;20004;-45
2021/12/15 13:44:48;;;;;;;3.28;2.67;;;;;;;;;;6213181;22;20016;-45
2021/12/15 13:47:19;;;;;;;3.63;2.78;;;;;;;;;;6211202;22;20028;-44
2021/12/15 13:49:47;;;;;;;2.97;2.38;;;;;;;;;;6212060;22;20151;-45
2021/12/15 13:52:25;;;;;;;2.90;2.58;;;;;;;;;;6210403;22;20099;-44
2021/12/15 13:54:51;;;;;;;3.30;3.00;;;;;;;;;;6211040;22;20389;-45
2021/12/15 13:57:19;;;;;;;2.55;2.35;;;;;;;;;;6211075;22;20511;-45
2021/12/15 13:59:50;;;;;;;4.25;2.72;;;;;;;;;;6217632;22;20621;-45
2021/12/15 14:02:16;;;;;;;4.00;3.60;;;;;;;;;;6214359;22;20414;-44
2021/12/15 14:04:44;;;;;;;4.78;3.25;;;;;;;;;;6212107;22;20009;-45
2021/12/15 14:07:28;;;;;;;3.33;2.83;;;;;;;;;;6211261;22;20527;-45
2021/12/15 14:09:57;;;;;;;2.60;2.40;;;;;;;;;;6212736;22;20012;-47
2021/12/15 14:13:02;;;;;;;2.95;2.63;;;;;;;;;;6213842;22;20012;-43
2021/12/15 14:15:42;;;;;;;3.00;2.70;;;;;;;;;;6105298;23;20079;-45
2021/12/15 14:18:08;;;;;;;3.63;2.80;;;;;;;;;;6080754;23;20014;-46
2021/12/15 14:20:38;;;;;;;2.90;2.67;;;;;;;;;;6162987;22;20015;-44
2021/12/15 14:23:08;;;;;;;2.65;2.40;;;;;;;;;;6216979;22;20012;-44
2021/12/15 14:25:35;;;;;;;3.17;2.88;;;;;;;;;;6213223;22;20023;-44
2021/12/15 14:28:04;;;;;;;6.45;3.10;;;;;;;;;;6210416;22;20032;-44
2021/12/15 14:30:30;;;;;;;4.45;3.15;;;;;;;;;;6215564;22;20012;-46
2021/12/15 14:32:55;;;;;;;3.78;3.47;;;;;;;;;;6215872;22;20023;-45
2021/12/15 14:35:22;;;;;;;3.58;2.53;;;;;;;;;;6215005;22;20008;-45
2021/12/15 14:37:47;;;;;;;2.78;2.58;;;;;;;;;;6212087;22;20013;-48
2021/12/15 14:40:12;;;;;;;5.05;3.08;;;;;;;;;;6212625;22;20457;-46
2021/12/15 14:42:42;;;;;;;2.85;2.47;;;;;;;;;;6216079;22;20742;-45
2021/12/15 14:45:08;;;;;;;3.47;2.47;;;;;;;;;;6216937;22;20015;-46
2021/12/15 14:47:36;;;;;;;3.15;2.85;;;;;;;;;;6210842;22;20055;-45
2021/12/15 14:50:10;;;;;;;2.83;2.55;;;;;;;;;;6211807;22;20650;-45
2021/12/15 14:52:37;;;;;;;5.90;3.33;;;;;;;;;;6216291;22;20136;-44
2021/12/15 14:55:05;;;;;;;4.72;3.08;;;;;;;;;;6203909;23;20547;-44
2021/12/15 14:57:31;;;;;;;3.20;2.90;;;;;;;;;;6198410;23;20040;-45
2021/12/15 15:00:13;;;;;;;3.20;3.00;;;;;;;;;;6211667;22;20013;-45
2021/12/15 15:02:43;;;;;;;3.25;2.85;;;;;;;;;;6217768;22;20463;-45
2021/12/15 15:05:29;;;;;;;2.38;2.17;;;;;;;;;;6216723;22;20012;-45
2021/12/15 15:07:56;;;;;;;3.60;2.78;;;;;;;;;;6215884;22;20103;-45
2021/12/15 15:10:23;;;;;;;3.38;3.08;;;;;;;;;;6213689;22;20012;-45
2021/12/15 15:12:49;;;;;;;3.65;2.75;;;;;;;;;;6209642;23;20013;-45
2021/12/15 15:15:21;;;;;;;3.47;2.70;;;;;;;;;;6199138;23;20012;-47
2021/12/15 15:17:52;;;;;;;3.17;2.90;;;;;;;;;;6211182;22;20021;-46
2021/12/15 15:20:32;;;;;;;4.43;3.13;;;;;;;;;;6208440;22;20580;-46
2021/12/15 15:23:03;;;;;;;3.10;2.88;;;;;;;;;;6206193;23;20091;-44
2021/12/15 15:25:33;;;;;;;2.80;2.40;;;;;;;;;;6212919;22;20473;-45
2021/12/15 15:27:58;;;;;;;;;;;;;;;;;;6217910;22;20032;-45
2021/12/15 15:30:25;;;;;;;4.35;3.20;;;;;;;;;;6214453;22;19921;-45
2021/12/15 15:32:52;;;;;;;3.88;3.58;;;;;;;;;;6212028;22;20251;-44
2021/12/15 15:35:22;;;;;;;4.68;2.67;;;;;;;;;;6211394;22;20012;-46
2021/12/15 15:37:51;;;;;;;3.03;2.58;;;;;;;;;;6216536;22;20015;-46
2021/12/15 15:40:33;;;;;;;2.83;2.63;;;;;;;;;;6214687;22;20019;-45
2021/12/15 15:43:06;;;;;;;4.85;2.90;;;;;;;;;;6208588;22;20071;-44
2021/12/15 15:45:39;;;;;;;3.00;2.70;;;;;;;;;;6211236;22;20048;-45
2021/12/15 15:48:07;;;;;;;3.08;2.78;;;;;;;;;;6212776;22;20024;-47
2021/12/15 15:50:33;;;;;;;3.15;2.80;;;;;;;;;;6218365;22;20526;-45
2021/12/15 15:53:00;;;;;;;4.07;2.40;;;;;;;;;;6219815;22;20024;-45
2021/12/15 15:55:26;;;;;;;3.45;2.42;;;;;;;;;;6220758;22;20096;-44
2021/12/15 15:57:57;;;;;;;3.17;2.85;;;;;;;;;;6214833;23;20091;-44
2021/12/15 16:00:26;;;;;;;3.05;2.50;;;;;;;;;;6205990;23;20120;-45
2021/12/15 16:02:51;;;;;;;4.82;3.08;;;;;;;;;;6219303;22;20008;-45
2021/12/15 16:05:17;;;;;;;3.20;2.67;;;;;;;;;;6218992;22;20008;-43
2021/12/15 16:07:46;;;;;;;2.67;2.47;;;;;;;;;;6223947;22;20055;-45
2021/12/15 16:10:11;;;;;;;3.17;2.88;;;;;;;;;;6223155;22;20012;-50
2021/12/15 16:12:37;;;;;;;4.32;3.10;;;;;;;;;;6219445;22;20341;-46
2021/12/15 16:15:03;;;;;;;2.40;2.20;;;;;;;;;;6218525;22;20483;-44
2021/12/15 16:17:40;;;;;;;3.83;2.88;;;;;;;;;;6221987;22;20028;-46
2021/12/15 16:20:21;;;;;;;4.32;3.00;;;;;;;;;;6224743;22;20070;-49
2021/12/15 16:23:00;;;;;;;5.35;3.17;;;;;;;;;;6214489;23;20437;-44
2021/12/15 16:25:27;;;;;;;3.47;2.78;;;;;;;;;;6205618;23;20033;-45